Airfield :
LOGIN :

Register | Disclaimer

   EN    FR    IT 

 










Legend :    VFR   Marginal VFR   IFR   Intensive IFR   Very Intensive IFR
Visi :
Ceiling :
>= 8 km
>= 3000ft
5 to 8 km
1000 to 3000 ft
1500m to 5 km
500 to 1000 ft
800 to 1500m
200 to 500 ft
< 800m
< 200 ft
Symbols :   Thunderstorms  Fog  Heavy snow  Heavy precipitations  Wind > 20 kt
SIGMETs :     Misc.  Thunderstorms  Icing  Turbulence  Mountain Waves  Volcanic Ashes






- Airport Elevation : 308 ft
- IATA code : POZ


EPPO - Poznan-Lawica

CURRENT METAR :
  • 070300Z 28007KT 9999 BKN007 02/02 Q1009

EXPIRED METARs :
  • 070230Z 28009KT 9999 OVC007 02/02 Q1009
  • 070200Z 29009KT 9999 OVC004 02/02 Q1010
  • 070130Z 28010KT 6000 OVC002 02/02 Q1010
  • 070100Z 28010KT 4900 BR OVC002 02/02 Q1010
  • 070030Z 28010KT 4900 BR OVC002 02/02 Q1010

TAF TAF EPPO
Valid from the 07 at 00:00 until the 08 at 00:00 UTC


062330Z 0700/0724 27008KT 6000 OVC004
TEMPO 0700/0706 2000 RASN BR OVC001
BECMG 0706/0709 BKN015
TEMPO 0709/0718 27016G28KT 2000 SHSNRA BKN004 BKN013CB



MET'MAP, your aeronautical weather chart ! - Copyright ORBIFLY December 2007 - Disclaimer

ORBIFLY MET'MAP TEAM :

Programming & Development : Alexandra Zaïnal
Original concept : Baudouin d'Aumeries
Technical & hardware support : Manuel Goepfert
Assistance : Marc-Olivier Méhu




SOURCES & CREDITS :

   NOAA